sensor_id;sensor_type;location;lat;lon;timestamp;temperature;humidity
7686;DHT22;3885;51.474;-2.576;2023-04-03T00:00:32;4.80;99.90
7686;DHT22;3885;51.474;-2.576;2023-04-03T00:02:59;4.70;99.90
7686;DHT22;3885;51.474;-2.576;2023-04-03T00:05:27;4.70;99.90
7686;DHT22;3885;51.474;-2.576;2023-04-03T00:07:54;4.70;99.90
7686;DHT22;3885;51.474;-2.576;2023-04-03T00:10:21;4.60;99.90
7686;DHT22;3885;51.474;-2.576;2023-04-03T00:12:48;4.60;99.90
7686;DHT22;3885;51.474;-2.576;2023-04-03T00:17:42;4.40;99.90
7686;DHT22;3885;51.474;-2.576;2023-04-03T00:25:06;4.30;99.90
7686;DHT22;3885;51.474;-2.576;2023-04-03T00:30:00;4.20;99.90
7686;DHT22;3885;51.474;-2.576;2023-04-03T00:32:27;4.10;99.90
7686;DHT22;3885;51.474;-2.576;2023-04-03T00:34:54;4.10;99.90
7686;DHT22;3885;51.474;-2.576;2023-04-03T00:37:21;4.00;99.90
7686;DHT22;3885;51.474;-2.576;2023-04-03T00:39:49;3.90;99.90
7686;DHT22;3885;51.474;-2.576;2023-04-03T00:42:17;3.80;99.90
7686;DHT22;3885;51.474;-2.576;2023-04-03T00:47:44;3.70;99.90
7686;DHT22;3885;51.474;-2.576;2023-04-03T00:50:11;3.60;99.90
7686;DHT22;3885;51.474;-2.576;2023-04-03T00:52:39;3.60;99.90
7686;DHT22;3885;51.474;-2.576;2023-04-03T00:55:08;3.60;99.90
7686;DHT22;3885;51.474;-2.576;2023-04-03T00:57:36;3.50;99.90
7686;DHT22;3885;51.474;-2.576;2023-04-03T01:02:32;3.30;99.90
7686;DHT22;3885;51.474;-2.576;2023-04-03T01:07:29;3.20;99.90
7686;DHT22;3885;51.474;-2.576;2023-04-03T01:10:00;3.20;99.90
7686;DHT22;3885;51.474;-2.576;2023-04-03T01:15:00;3.20;99.90
7686;DHT22;3885;51.474;-2.576;2023-04-03T01:17:31;3.20;99.90
7686;DHT22;3885;51.474;-2.576;2023-04-03T01:22:48;3.10;99.90
7686;DHT22;3885;51.474;-2.576;2023-04-03T01:25:19;3.10;99.90
7686;DHT22;3885;51.474;-2.576;2023-04-03T01:27:47;3.10;99.90
7686;DHT22;3885;51.474;-2.576;2023-04-03T01:30:16;3.10;99.90
7686;DHT22;3885;51.474;-2.576;2023-04-03T01:32:45;3.10;99.90
7686;DHT22;3885;51.474;-2.576;2023-04-03T01:35:12;3.10;99.90
7686;DHT22;3885;51.474;-2.576;2023-04-03T01:37:39;3.00;99.90
7686;DHT22;3885;51.474;-2.576;2023-04-03T01:40:07;3.00;99.90
7686;DHT22;3885;51.474;-2.576;2023-04-03T01:45:02;3.00;99.90
7686;DHT22;3885;51.474;-2.576;2023-04-03T01:47:29;2.90;99.90
7686;DHT22;3885;51.474;-2.576;2023-04-03T01:49:57;2.90;99.90
7686;DHT22;3885;51.474;-2.576;2023-04-03T01:52:24;2.80;99.90
7686;DHT22;3885;51.474;-2.576;2023-04-03T01:54:51;2.80;99.90
7686;DHT22;3885;51.474;-2.576;2023-04-03T01:59:45;2.70;99.90
7686;DHT22;3885;51.474;-2.576;2023-04-03T02:02:12;2.60;99.90
7686;DHT22;3885;51.474;-2.576;2023-04-03T02:04:40;2.60;99.90
7686;DHT22;3885;51.474;-2.576;2023-04-03T02:07:08;2.60;99.90
7686;DHT22;3885;51.474;-2.576;2023-04-03T02:12:02;2.50;99.90
7686;DHT22;3885;51.474;-2.576;2023-04-03T02:14:30;2.50;99.90
7686;DHT22;3885;51.474;-2.576;2023-04-03T02:16:57;2.40;99.90
7686;DHT22;3885;51.474;-2.576;2023-04-03T02:24:19;2.40;99.90
7686;DHT22;3885;51.474;-2.576;2023-04-03T02:26:46;2.40;99.90
7686;DHT22;3885;51.474;-2.576;2023-04-03T02:29:13;2.20;99.90
7686;DHT22;3885;51.474;-2.576;2023-04-03T02:34:08;2.30;99.90
7686;DHT22;3885;51.474;-2.576;2023-04-03T02:36:35;2.20;99.90
7686;DHT22;3885;51.474;-2.576;2023-04-03T02:39:02;2.20;99.90
7686;DHT22;3885;51.474;-2.576;2023-04-03T02:41:30;2.20;99.90
7686;DHT22;3885;51.474;-2.576;2023-04-03T02:46:27;2.30;99.90
7686;DHT22;3885;51.474;-2.576;2023-04-03T02:48:54;2.20;99.90
7686;DHT22;3885;51.474;-2.576;2023-04-03T02:51:22;2.20;99.90
7686;DHT22;3885;51.474;-2.576;2023-04-03T02:53:49;2.20;99.90
7686;DHT22;3885;51.474;-2.576;2023-04-03T02:56:17;2.20;99.90
7686;DHT22;3885;51.474;-2.576;2023-04-03T03:01:14;2.00;99.90
7686;DHT22;3885;51.474;-2.576;2023-04-03T03:03:41;2.00;99.90
7686;DHT22;3885;51.474;-2.576;2023-04-03T03:06:10;2.00;99.90
7686;DHT22;3885;51.474;-2.576;2023-04-03T03:08:37;2.00;99.90
7686;DHT22;3885;51.474;-2.576;2023-04-03T03:11:05;2.00;99.90
7686;DHT22;3885;51.474;-2.576;2023-04-03T03:13:32;1.90;99.90
7686;DHT22;3885;51.474;-2.576;2023-04-03T03:16:00;1.90;99.90
7686;DHT22;3885;51.474;-2.576;2023-04-03T03:18:27;1.80;99.90
7686;DHT22;3885;51.474;-2.576;2023-04-03T03:20:57;1.80;99.90
7686;DHT22;3885;51.474;-2.576;2023-04-03T03:35:45;1.70;99.90
7686;DHT22;3885;51.474;-2.576;2023-04-03T03:38:12;1.60;99.90
7686;DHT22;3885;51.474;-2.576;2023-04-03T03:40:39;1.60;99.90
7686;DHT22;3885;51.474;-2.576;2023-04-03T03:43:06;1.50;99.90
7686;DHT22;3885;51.474;-2.576;2023-04-03T03:48:00;1.50;99.90
7686;DHT22;3885;51.474;-2.576;2023-04-03T03:50:29;1.50;99.90
7686;DHT22;3885;51.474;-2.576;2023-04-03T03:52:56;1.40;99.90
7686;DHT22;3885;51.474;-2.576;2023-04-03T03:55:22;1.40;99.90
7686;DHT22;3885;51.474;-2.576;2023-04-03T03:57:49;1.30;99.90
7686;DHT22;3885;51.474;-2.576;2023-04-03T04:02:44;1.30;99.90
7686;DHT22;3885;51.474;-2.576;2023-04-03T04:05:11;1.30;99.90
7686;DHT22;3885;51.474;-2.576;2023-04-03T04:07:39;1.30;99.90
7686;DHT22;3885;51.474;-2.576;2023-04-03T04:10:07;1.20;99.90
7686;DHT22;3885;51.474;-2.576;2023-04-03T04:12:34;1.20;99.90
7686;DHT22;3885;51.474;-2.576;2023-04-03T04:17:29;1.20;99.90
7686;DHT22;3885;51.474;-2.576;2023-04-03T04:19:56;1.20;99.90
7686;DHT22;3885;51.474;-2.576;2023-04-03T04:22:23;1.20;99.90
7686;DHT22;3885;51.474;-2.576;2023-04-03T04:24:51;1.20;99.90
7686;DHT22;3885;51.474;-2.576;2023-04-03T04:27:18;1.20;99.90
7686;DHT22;3885;51.474;-2.576;2023-04-03T04:32:12;1.20;99.90
7686;DHT22;3885;51.474;-2.576;2023-04-03T04:34:39;1.20;99.90
7686;DHT22;3885;51.474;-2.576;2023-04-03T04:37:06;1.10;99.90
7686;DHT22;3885;51.474;-2.576;2023-04-03T04:39:33;1.10;99.90
7686;DHT22;3885;51.474;-2.576;2023-04-03T04:42:01;1.10;99.90
7686;DHT22;3885;51.474;-2.576;2023-04-03T04:44:28;1.00;99.90
7686;DHT22;3885;51.474;-2.576;2023-04-03T04:46:55;1.10;99.90
7686;DHT22;3885;51.474;-2.576;2023-04-03T04:49:22;1.00;99.90
7686;DHT22;3885;51.474;-2.576;2023-04-03T04:51:49;1.00;99.90
7686;DHT22;3885;51.474;-2.576;2023-04-03T04:54:16;1.00;99.90
7686;DHT22;3885;51.474;-2.576;2023-04-03T04:56:43;1.00;99.90
7686;DHT22;3885;51.474;-2.576;2023-04-03T05:01:38;0.90;99.90
7686;DHT22;3885;51.474;-2.576;2023-04-03T05:04:05;0.90;99.90
7686;DHT22;3885;51.474;-2.576;2023-04-03T05:06:33;0.90;99.90
7686;DHT22;3885;51.474;-2.576;2023-04-03T05:09:00;0.90;99.90
7686;DHT22;3885;51.474;-2.576;2023-04-03T05:11:27;0.80;99.90
7686;DHT22;3885;51.474;-2.576;2023-04-03T05:13:54;0.80;99.90
7686;DHT22;3885;51.474;-2.576;2023-04-03T05:16:23;0.80;99.90
7686;DHT22;3885;51.474;-2.576;2023-04-03T05:18:50;0.70;99.90
7686;DHT22;3885;51.474;-2.576;2023-04-03T05:21:17;0.70;99.90
7686;DHT22;3885;51.474;-2.576;2023-04-03T05:23:44;0.70;99.90
7686;DHT22;3885;51.474;-2.576;2023-04-03T05:26:11;0.70;99.90
7686;DHT22;3885;51.474;-2.576;2023-04-03T05:28:38;0.70;99.90
7686;DHT22;3885;51.474;-2.576;2023-04-03T05:31:05;0.70;99.90
7686;DHT22;3885;51.474;-2.576;2023-04-03T05:33:33;0.70;99.90
7686;DHT22;3885;51.474;-2.576;2023-04-03T05:36:02;0.70;99.90
7686;DHT22;3885;51.474;-2.576;2023-04-03T05:38:30;0.70;99.90
7686;DHT22;3885;51.474;-2.576;2023-04-03T05:40:56;0.70;99.90
7686;DHT22;3885;51.474;-2.576;2023-04-03T05:43:24;0.70;99.90
7686;DHT22;3885;51.474;-2.576;2023-04-03T05:45:51;0.60;99.90
7686;DHT22;3885;51.474;-2.576;2023-04-03T05:48:18;0.70;99.90
7686;DHT22;3885;51.474;-2.576;2023-04-03T05:50:47;0.70;99.90
7686;DHT22;3885;51.474;-2.576;2023-04-03T05:53:19;0.70;99.90
7686;DHT22;3885;51.474;-2.576;2023-04-03T05:55:47;0.60;99.90
7686;DHT22;3885;51.474;-2.576;2023-04-03T05:58:15;0.60;99.90
7686;DHT22;3885;51.474;-2.576;2023-04-03T06:03:09;0.50;99.90
7686;DHT22;3885;51.474;-2.576;2023-04-03T06:05:36;0.60;99.90
7686;DHT22;3885;51.474;-2.576;2023-04-03T06:08:04;0.60;99.90
7686;DHT22;3885;51.474;-2.576;2023-04-03T06:12:59;0.60;99.90
7686;DHT22;3885;51.474;-2.576;2023-04-03T06:17:53;0.70;99.90
7686;DHT22;3885;51.474;-2.576;2023-04-03T06:22:47;0.70;99.90
7686;DHT22;3885;51.474;-2.576;2023-04-03T06:25:16;0.80;99.90
7686;DHT22;3885;51.474;-2.576;2023-04-03T06:27:44;0.80;99.90
7686;DHT22;3885;51.474;-2.576;2023-04-03T06:32:38;0.90;99.90
7686;DHT22;3885;51.474;-2.576;2023-04-03T06:35:06;1.00;99.90
7686;DHT22;3885;51.474;-2.576;2023-04-03T06:37:34;1.00;99.90
7686;DHT22;3885;51.474;-2.576;2023-04-03T06:40:01;0.90;99.90
7686;DHT22;3885;51.474;-2.576;2023-04-03T06:44:57;1.10;99.90
7686;DHT22;3885;51.474;-2.576;2023-04-03T06:47:24;1.30;99.90
7686;DHT22;3885;51.474;-2.576;2023-04-03T06:49:51;1.40;99.90
7686;DHT22;3885;51.474;-2.576;2023-04-03T06:52:18;1.60;99.90
7686;DHT22;3885;51.474;-2.576;2023-04-03T06:57:13;1.90;99.90
7686;DHT22;3885;51.474;-2.576;2023-04-03T06:59:42;2.10;99.90
7686;DHT22;3885;51.474;-2.576;2023-04-03T07:02:11;2.20;99.90
7686;DHT22;3885;51.474;-2.576;2023-04-03T07:04:38;2.30;99.90
7686;DHT22;3885;51.474;-2.576;2023-04-03T07:19:23;2.80;99.90
7686;DHT22;3885;51.474;-2.576;2023-04-03T07:21:52;2.90;99.90
7686;DHT22;3885;51.474;-2.576;2023-04-03T07:24:20;3.00;99.90
7686;DHT22;3885;51.474;-2.576;2023-04-03T07:26:49;3.10;99.90
7686;DHT22;3885;51.474;-2.576;2023-04-03T07:29:16;3.30;99.90
7686;DHT22;3885;51.474;-2.576;2023-04-03T07:31:43;3.40;99.90
7686;DHT22;3885;51.474;-2.576;2023-04-03T07:34:11;3.50;99.90
7686;DHT22;3885;51.474;-2.576;2023-04-03T07:36:38;3.50;99.90
7686;DHT22;3885;51.474;-2.576;2023-04-03T07:39:06;3.70;99.90
7686;DHT22;3885;51.474;-2.576;2023-04-03T07:41:33;3.70;99.90
7686;DHT22;3885;51.474;-2.576;2023-04-03T07:46:28;3.90;99.90
7686;DHT22;3885;51.474;-2.576;2023-04-03T07:51:23;4.30;99.90
7686;DHT22;3885;51.474;-2.576;2023-04-03T07:53:51;4.30;99.90
7686;DHT22;3885;51.474;-2.576;2023-04-03T07:58:46;4.40;99.90
7686;DHT22;3885;51.474;-2.576;2023-04-03T08:01:13;4.60;99.90
7686;DHT22;3885;51.474;-2.576;2023-04-03T08:03:40;4.80;99.90
7686;DHT22;3885;51.474;-2.576;2023-04-03T08:06:08;5.20;99.90
7686;DHT22;3885;51.474;-2.576;2023-04-03T08:08:37;5.20;99.90
7686;DHT22;3885;51.474;-2.576;2023-04-03T08:11:04;5.20;99.90
7686;DHT22;3885;51.474;-2.576;2023-04-03T08:13:31;5.20;99.90
7686;DHT22;3885;51.474;-2.576;2023-04-03T08:16:07;5.80;99.90
7686;DHT22;3885;51.474;-2.576;2023-04-03T08:18:35;5.90;99.90
7686;DHT22;3885;51.474;-2.576;2023-04-03T08:21:06;5.80;99.90
7686;DHT22;3885;51.474;-2.576;2023-04-03T08:23:32;5.70;99.90
7686;DHT22;3885;51.474;-2.576;2023-04-03T08:26:06;5.60;99.90
7686;DHT22;3885;51.474;-2.576;2023-04-03T08:28:33;5.80;99.90
7686;DHT22;3885;51.474;-2.576;2023-04-03T08:31:03;6.00;99.90
7686;DHT22;3885;51.474;-2.576;2023-04-03T08:35:59;6.40;99.90
7686;DHT22;3885;51.474;-2.576;2023-04-03T08:38:26;6.60;99.90
7686;DHT22;3885;51.474;-2.576;2023-04-03T08:41:09;6.60;99.90
7686;DHT22;3885;51.474;-2.576;2023-04-03T08:46:11;6.80;99.90
7686;DHT22;3885;51.474;-2.576;2023-04-03T08:48:41;6.70;99.90
7686;DHT22;3885;51.474;-2.576;2023-04-03T08:51:13;7.00;99.90
7686;DHT22;3885;51.474;-2.576;2023-04-03T08:53:43;6.80;99.90
7686;DHT22;3885;51.474;-2.576;2023-04-03T08:58:47;7.10;99.90
7686;DHT22;3885;51.474;-2.576;2023-04-03T09:01:19;7.40;99.90
7686;DHT22;3885;51.474;-2.576;2023-04-03T09:03:47;7.60;99.90
7686;DHT22;3885;51.474;-2.576;2023-04-03T09:11:16;8.10;99.90
7686;DHT22;3885;51.474;-2.576;2023-04-03T09:13:51;8.20;99.90
7686;DHT22;3885;51.474;-2.576;2023-04-03T09:16:28;7.90;99.90
7686;DHT22;3885;51.474;-2.576;2023-04-03T09:19:05;7.90;99.90
7686;DHT22;3885;51.474;-2.576;2023-04-03T09:21:37;7.90;99.90
7686;DHT22;3885;51.474;-2.576;2023-04-03T09:24:06;8.00;99.90
7686;DHT22;3885;51.474;-2.576;2023-04-03T09:26:39;8.00;99.90
7686;DHT22;3885;51.474;-2.576;2023-04-03T09:29:14;8.20;99.90
7686;DHT22;3885;51.474;-2.576;2023-04-03T09:31:46;8.40;99.90
7686;DHT22;3885;51.474;-2.576;2023-04-03T09:34:20;8.40;99.90
7686;DHT22;3885;51.474;-2.576;2023-04-03T09:36:49;8.40;99.90
7686;DHT22;3885;51.474;-2.576;2023-04-03T09:39:18;8.50;99.90
7686;DHT22;3885;51.474;-2.576;2023-04-03T09:41:58;8.40;99.90
7686;DHT22;3885;51.474;-2.576;2023-04-03T09:44:27;8.60;99.90
7686;DHT22;3885;51.474;-2.576;2023-04-03T09:46:54;8.90;99.90
7686;DHT22;3885;51.474;-2.576;2023-04-03T09:49:21;9.20;99.90
7686;DHT22;3885;51.474;-2.576;2023-04-03T09:51:48;9.50;99.90
7686;DHT22;3885;51.474;-2.576;2023-04-03T09:54:39;9.50;99.90
7686;DHT22;3885;51.474;-2.576;2023-04-03T09:57:10;9.50;99.90
7686;DHT22;3885;51.474;-2.576;2023-04-03T09:59:46;9.60;99.90
7686;DHT22;3885;51.474;-2.576;2023-04-03T10:04:56;9.70;99.90
7686;DHT22;3885;51.474;-2.576;2023-04-03T10:07:29;9.80;99.90
7686;DHT22;3885;51.474;-2.576;2023-04-03T10:09:57;9.70;99.90
7686;DHT22;3885;51.474;-2.576;2023-04-03T10:14:57;9.50;99.90
7686;DHT22;3885;51.474;-2.576;2023-04-03T10:17:36;9.70;99.90
7686;DHT22;3885;51.474;-2.576;2023-04-03T10:20:15;10.00;99.90
7686;DHT22;3885;51.474;-2.576;2023-04-03T10:22:56;9.90;99.90
7686;DHT22;3885;51.474;-2.576;2023-04-03T10:25:30;10.00;99.90
7686;DHT22;3885;51.474;-2.576;2023-04-03T10:28:06;10.20;99.90
7686;DHT22;3885;51.474;-2.576;2023-04-03T10:30:42;10.30;99.90
7686;DHT22;3885;51.474;-2.576;2023-04-03T10:33:23;10.30;99.90
7686;DHT22;3885;51.474;-2.576;2023-04-03T10:41:04;10.50;99.90
7686;DHT22;3885;51.474;-2.576;2023-04-03T10:46:11;10.20;99.90
7686;DHT22;3885;51.474;-2.576;2023-04-03T10:51:23;10.10;99.90
7686;DHT22;3885;51.474;-2.576;2023-04-03T10:53:56;10.20;99.90
7686;DHT22;3885;51.474;-2.576;2023-04-03T10:56:31;10.30;99.90
7686;DHT22;3885;51.474;-2.576;2023-04-03T11:01:36;10.40;99.90
7686;DHT22;3885;51.474;-2.576;2023-04-03T11:04:06;10.50;99.90
7686;DHT22;3885;51.474;-2.576;2023-04-03T11:06:37;10.50;99.90
7686;DHT22;3885;51.474;-2.576;2023-04-03T11:09:15;10.70;99.90
7686;DHT22;3885;51.474;-2.576;2023-04-03T11:11:46;10.50;99.90
7686;DHT22;3885;51.474;-2.576;2023-04-03T11:16:55;10.90;99.90
7686;DHT22;3885;51.474;-2.576;2023-04-03T11:19:33;10.80;99.90
7686;DHT22;3885;51.474;-2.576;2023-04-03T11:22:05;10.70;99.90
7686;DHT22;3885;51.474;-2.576;2023-04-03T11:24:36;10.60;99.90
7686;DHT22;3885;51.474;-2.576;2023-04-03T11:27:05;10.80;99.90
7686;DHT22;3885;51.474;-2.576;2023-04-03T11:29:38;10.90;99.90
7686;DHT22;3885;51.474;-2.576;2023-04-03T11:32:24;11.30;99.90
7686;DHT22;3885;51.474;-2.576;2023-04-03T11:34:56;11.60;99.90
7686;DHT22;3885;51.474;-2.576;2023-04-03T11:42:29;11.80;99.90
7686;DHT22;3885;51.474;-2.576;2023-04-03T11:47:46;11.70;99.90
7686;DHT22;3885;51.474;-2.576;2023-04-03T11:53:35;11.70;99.90
7686;DHT22;3885;51.474;-2.576;2023-04-03T11:56:29;11.70;99.90
7686;DHT22;3885;51.474;-2.576;2023-04-03T11:59:22;11.60;99.90
7686;DHT22;3885;51.474;-2.576;2023-04-03T12:01:50;11.60;99.90
7686;DHT22;3885;51.474;-2.576;2023-04-03T12:04:20;11.70;99.90
7686;DHT22;3885;51.474;-2.576;2023-04-03T12:12:56;11.80;99.90
7686;DHT22;3885;51.474;-2.576;2023-04-03T12:15:54;11.90;99.90
7686;DHT22;3885;51.474;-2.576;2023-04-03T12:18:59;11.90;99.90
7686;DHT22;3885;51.474;-2.576;2023-04-03T12:27:11;12.20;99.90
7686;DHT22;3885;51.474;-2.576;2023-04-03T12:32:20;12.30;99.90
7686;DHT22;3885;51.474;-2.576;2023-04-03T12:34:59;12.40;99.90
7686;DHT22;3885;51.474;-2.576;2023-04-03T12:37:51;12.60;99.90
7686;DHT22;3885;51.474;-2.576;2023-04-03T12:40:25;12.40;99.90
7686;DHT22;3885;51.474;-2.576;2023-04-03T12:43:05;12.40;99.90
7686;DHT22;3885;51.474;-2.576;2023-04-03T12:45:41;12.50;99.90
7686;DHT22;3885;51.474;-2.576;2023-04-03T12:50:41;12.60;99.90
7686;DHT22;3885;51.474;-2.576;2023-04-03T12:53:13;12.70;99.90
7686;DHT22;3885;51.474;-2.576;2023-04-03T12:55:44;12.70;99.90
7686;DHT22;3885;51.474;-2.576;2023-04-03T12:58:16;12.60;99.90
7686;DHT22;3885;51.474;-2.576;2023-04-03T13:00:43;12.60;99.90
7686;DHT22;3885;51.474;-2.576;2023-04-03T13:03:22;12.60;99.90
7686;DHT22;3885;51.474;-2.576;2023-04-03T13:06:02;12.80;99.90
7686;DHT22;3885;51.474;-2.576;2023-04-03T13:08:29;12.90;99.90
7686;DHT22;3885;51.474;-2.576;2023-04-03T13:11:02;12.80;99.90
7686;DHT22;3885;51.474;-2.576;2023-04-03T13:13:30;12.80;99.90
7686;DHT22;3885;51.474;-2.576;2023-04-03T13:15:58;12.90;99.90
7686;DHT22;3885;51.474;-2.576;2023-04-03T13:23:24;13.30;99.90
7686;DHT22;3885;51.474;-2.576;2023-04-03T13:25:51;13.50;99.90
7686;DHT22;3885;51.474;-2.576;2023-04-03T13:28:22;13.40;99.90
7686;DHT22;3885;51.474;-2.576;2023-04-03T13:30:59;13.10;99.90
7686;DHT22;3885;51.474;-2.576;2023-04-03T13:33:30;13.00;99.90
7686;DHT22;3885;51.474;-2.576;2023-04-03T13:36:02;12.90;99.90
7686;DHT22;3885;51.474;-2.576;2023-04-03T13:41:01;13.40;99.90
7686;DHT22;3885;51.474;-2.576;2023-04-03T13:51:04;13.60;99.90
7686;DHT22;3885;51.474;-2.576;2023-04-03T13:53:33;13.50;99.90
7686;DHT22;3885;51.474;-2.576;2023-04-03T13:56:06;13.40;99.90
7686;DHT22;3885;51.474;-2.576;2023-04-03T13:58:36;13.40;99.90
7686;DHT22;3885;51.474;-2.576;2023-04-03T14:03:42;13.60;99.90
7686;DHT22;3885;51.474;-2.576;2023-04-03T14:06:10;13.50;99.90
7686;DHT22;3885;51.474;-2.576;2023-04-03T14:08:38;13.50;99.90
7686;DHT22;3885;51.474;-2.576;2023-04-03T14:11:05;13.60;99.90
7686;DHT22;3885;51.474;-2.576;2023-04-03T14:13:34;13.80;99.90
7686;DHT22;3885;51.474;-2.576;2023-04-03T14:16:01;14.10;99.90
7686;DHT22;3885;51.474;-2.576;2023-04-03T14:20:55;13.70;99.90
7686;DHT22;3885;51.474;-2.576;2023-04-03T14:23:22;13.60;99.90
7686;DHT22;3885;51.474;-2.576;2023-04-03T14:28:18;13.40;99.90
7686;DHT22;3885;51.474;-2.576;2023-04-03T14:30:48;13.40;99.90
7686;DHT22;3885;51.474;-2.576;2023-04-03T14:35:44;13.50;99.90
7686;DHT22;3885;51.474;-2.576;2023-04-03T14:38:22;13.70;99.90
7686;DHT22;3885;51.474;-2.576;2023-04-03T14:45:47;13.60;99.90
7686;DHT22;3885;51.474;-2.576;2023-04-03T14:48:18;13.90;99.90
7686;DHT22;3885;51.474;-2.576;2023-04-03T14:58:13;13.90;99.90
7686;DHT22;3885;51.474;-2.576;2023-04-03T15:00:40;14.10;99.90
7686;DHT22;3885;51.474;-2.576;2023-04-03T15:05:40;14.20;99.90
7686;DHT22;3885;51.474;-2.576;2023-04-03T15:08:17;14.10;99.90
7686;DHT22;3885;51.474;-2.576;2023-04-03T15:10:45;14.10;99.90
7686;DHT22;3885;51.474;-2.576;2023-04-03T15:13:12;14.20;99.90
7686;DHT22;3885;51.474;-2.576;2023-04-03T15:15:40;14.20;99.90
7686;DHT22;3885;51.474;-2.576;2023-04-03T15:20:39;14.20;99.90
7686;DHT22;3885;51.474;-2.576;2023-04-03T15:25:33;14.30;99.90
7686;DHT22;3885;51.474;-2.576;2023-04-03T15:30:28;14.20;99.90
7686;DHT22;3885;51.474;-2.576;2023-04-03T15:32:55;14.10;99.90
7686;DHT22;3885;51.474;-2.576;2023-04-03T15:35:21;14.10;99.90
7686;DHT22;3885;51.474;-2.576;2023-04-03T15:37:50;14.10;99.90
7686;DHT22;3885;51.474;-2.576;2023-04-03T15:40:17;14.00;99.90
7686;DHT22;3885;51.474;-2.576;2023-04-03T15:47:38;13.80;99.90
7686;DHT22;3885;51.474;-2.576;2023-04-03T15:50:06;13.80;99.90
7686;DHT22;3885;51.474;-2.576;2023-04-03T15:57:29;13.90;99.90
7686;DHT22;3885;51.474;-2.576;2023-04-03T15:59:56;13.80;99.90
7686;DHT22;3885;51.474;-2.576;2023-04-03T16:02:23;13.80;99.90
7686;DHT22;3885;51.474;-2.576;2023-04-03T16:04:53;13.70;99.90
7686;DHT22;3885;51.474;-2.576;2023-04-03T16:07:20;13.90;99.90
7686;DHT22;3885;51.474;-2.576;2023-04-03T16:12:16;13.90;99.90
7686;DHT22;3885;51.474;-2.576;2023-04-03T16:17:10;13.80;99.90
7686;DHT22;3885;51.474;-2.576;2023-04-03T16:19:37;13.80;99.90
7686;DHT22;3885;51.474;-2.576;2023-04-03T16:22:04;13.60;99.90
7686;DHT22;3885;51.474;-2.576;2023-04-03T16:24:31;13.40;99.90
7686;DHT22;3885;51.474;-2.576;2023-04-03T16:26:58;13.60;99.90
7686;DHT22;3885;51.474;-2.576;2023-04-03T16:29:27;13.60;99.90
7686;DHT22;3885;51.474;-2.576;2023-04-03T16:31:54;13.70;99.90
7686;DHT22;3885;51.474;-2.576;2023-04-03T16:36:51;13.70;99.90
7686;DHT22;3885;51.474;-2.576;2023-04-03T16:39:18;13.50;99.90
7686;DHT22;3885;51.474;-2.576;2023-04-03T16:46:41;13.50;99.90
7686;DHT22;3885;51.474;-2.576;2023-04-03T16:49:08;13.40;99.90
7686;DHT22;3885;51.474;-2.576;2023-04-03T16:54:02;13.20;99.90
7686;DHT22;3885;51.474;-2.576;2023-04-03T16:58:57;13.30;99.90
7686;DHT22;3885;51.474;-2.576;2023-04-03T17:01:24;13.40;99.90
7686;DHT22;3885;51.474;-2.576;2023-04-03T17:06:21;13.40;99.90
7686;DHT22;3885;51.474;-2.576;2023-04-03T17:08:50;13.20;99.90
7686;DHT22;3885;51.474;-2.576;2023-04-03T17:11:18;13.00;99.90
7686;DHT22;3885;51.474;-2.576;2023-04-03T17:18:41;12.90;99.90
7686;DHT22;3885;51.474;-2.576;2023-04-03T17:23:39;12.70;99.90
7686;DHT22;3885;51.474;-2.576;2023-04-03T17:26:06;12.60;99.90
7686;DHT22;3885;51.474;-2.576;2023-04-03T17:31:01;12.60;99.90
7686;DHT22;3885;51.474;-2.576;2023-04-03T17:38:25;12.50;99.90
7686;DHT22;3885;51.474;-2.576;2023-04-03T17:43:22;12.50;99.90
7686;DHT22;3885;51.474;-2.576;2023-04-03T17:45:49;12.50;99.90
7686;DHT22;3885;51.474;-2.576;2023-04-03T17:48:17;12.30;99.90
7686;DHT22;3885;51.474;-2.576;2023-04-03T17:53:11;12.20;99.90
7686;DHT22;3885;51.474;-2.576;2023-04-03T17:55:41;12.10;99.90
7686;DHT22;3885;51.474;-2.576;2023-04-03T17:58:07;12.10;99.90
7686;DHT22;3885;51.474;-2.576;2023-04-03T18:00:36;12.10;99.90
7686;DHT22;3885;51.474;-2.576;2023-04-03T18:03:03;12.10;99.90
7686;DHT22;3885;51.474;-2.576;2023-04-03T18:05:30;12.00;99.90
7686;DHT22;3885;51.474;-2.576;2023-04-03T18:07:58;12.00;99.90
7686;DHT22;3885;51.474;-2.576;2023-04-03T18:10:25;11.90;99.90
7686;DHT22;3885;51.474;-2.576;2023-04-03T18:12:54;11.90;99.90
7686;DHT22;3885;51.474;-2.576;2023-04-03T18:15:22;11.80;99.90
7686;DHT22;3885;51.474;-2.576;2023-04-03T18:17:50;11.80;99.90
7686;DHT22;3885;51.474;-2.576;2023-04-03T18:20:21;11.80;99.90
7686;DHT22;3885;51.474;-2.576;2023-04-03T18:22:48;11.70;99.90
7686;DHT22;3885;51.474;-2.576;2023-04-03T18:27:44;11.60;99.90
7686;DHT22;3885;51.474;-2.576;2023-04-03T18:30:15;11.50;99.90
7686;DHT22;3885;51.474;-2.576;2023-04-03T18:32:42;11.50;99.90
7686;DHT22;3885;51.474;-2.576;2023-04-03T18:35:10;11.40;99.90
7686;DHT22;3885;51.474;-2.576;2023-04-03T18:40:05;11.10;99.90
7686;DHT22;3885;51.474;-2.576;2023-04-03T18:42:32;11.00;99.90
7686;DHT22;3885;51.474;-2.576;2023-04-03T18:47:29;10.90;99.90
7686;DHT22;3885;51.474;-2.576;2023-04-03T18:49:57;10.80;99.90
7686;DHT22;3885;51.474;-2.576;2023-04-03T18:52:24;10.60;99.90
7686;DHT22;3885;51.474;-2.576;2023-04-03T18:54:51;10.50;99.90
7686;DHT22;3885;51.474;-2.576;2023-04-03T18:57:18;10.30;99.90
7686;DHT22;3885;51.474;-2.576;2023-04-03T18:59:45;10.30;99.90
7686;DHT22;3885;51.474;-2.576;2023-04-03T19:04:42;10.00;99.90
7686;DHT22;3885;51.474;-2.576;2023-04-03T19:07:09;9.90;99.90
7686;DHT22;3885;51.474;-2.576;2023-04-03T19:09:36;9.80;99.90
7686;DHT22;3885;51.474;-2.576;2023-04-03T19:12:04;9.70;99.90
7686;DHT22;3885;51.474;-2.576;2023-04-03T19:14:32;9.50;99.90
7686;DHT22;3885;51.474;-2.576;2023-04-03T19:16:59;9.50;99.90
7686;DHT22;3885;51.474;-2.576;2023-04-03T19:19:27;9.40;99.90
7686;DHT22;3885;51.474;-2.576;2023-04-03T19:21:55;9.30;99.90
7686;DHT22;3885;51.474;-2.576;2023-04-03T19:24:22;9.20;99.90
7686;DHT22;3885;51.474;-2.576;2023-04-03T19:29:16;9.00;99.90
7686;DHT22;3885;51.474;-2.576;2023-04-03T19:31:43;8.90;99.90
7686;DHT22;3885;51.474;-2.576;2023-04-03T19:34:10;8.80;99.90
7686;DHT22;3885;51.474;-2.576;2023-04-03T19:36:37;8.70;99.90
7686;DHT22;3885;51.474;-2.576;2023-04-03T19:39:08;8.60;99.90
7686;DHT22;3885;51.474;-2.576;2023-04-03T19:41:35;8.50;99.90
7686;DHT22;3885;51.474;-2.576;2023-04-03T19:44:03;8.40;99.90
7686;DHT22;3885;51.474;-2.576;2023-04-03T19:46:31;8.30;99.90
7686;DHT22;3885;51.474;-2.576;2023-04-03T19:48:58;8.20;99.90
7686;DHT22;3885;51.474;-2.576;2023-04-03T19:51:25;8.20;99.90
7686;DHT22;3885;51.474;-2.576;2023-04-03T19:53:52;8.10;99.90
7686;DHT22;3885;51.474;-2.576;2023-04-03T19:56:20;8.00;99.90
7686;DHT22;3885;51.474;-2.576;2023-04-03T20:01:18;7.70;99.90
7686;DHT22;3885;51.474;-2.576;2023-04-03T20:03:45;7.70;99.90
7686;DHT22;3885;51.474;-2.576;2023-04-03T20:06:12;7.70;99.90
7686;DHT22;3885;51.474;-2.576;2023-04-03T20:16:03;7.30;99.90
7686;DHT22;3885;51.474;-2.576;2023-04-03T20:21:00;7.20;99.90
7686;DHT22;3885;51.474;-2.576;2023-04-03T20:23:28;7.20;99.90
7686;DHT22;3885;51.474;-2.576;2023-04-03T20:25:56;7.10;99.90
7686;DHT22;3885;51.474;-2.576;2023-04-03T20:28:25;7.20;99.90
7686;DHT22;3885;51.474;-2.576;2023-04-03T20:30:54;7.10;99.90
7686;DHT22;3885;51.474;-2.576;2023-04-03T20:33:22;7.00;99.90
7686;DHT22;3885;51.474;-2.576;2023-04-03T20:35:51;7.00;99.90
7686;DHT22;3885;51.474;-2.576;2023-04-03T20:40:46;6.90;99.90
7686;DHT22;3885;51.474;-2.576;2023-04-03T20:45:41;6.70;99.90
7686;DHT22;3885;51.474;-2.576;2023-04-03T20:48:10;6.60;99.90
7686;DHT22;3885;51.474;-2.576;2023-04-03T20:53:05;6.60;99.90
7686;DHT22;3885;51.474;-2.576;2023-04-03T20:55:32;6.50;99.90
7686;DHT22;3885;51.474;-2.576;2023-04-03T20:58:00;6.40;99.90
7686;DHT22;3885;51.474;-2.576;2023-04-03T21:02:57;6.20;99.90